createdAt,value
2023-04-18T00:00:12.640Z,84.90
2023-04-18T00:02:48.591Z,84.00
2023-04-18T00:05:22.069Z,84.90
2023-04-18T00:07:55.353Z,79.40
2023-04-18T00:10:27.962Z,86.20
2023-04-18T00:13:00.813Z,56.40
2023-04-18T00:15:35.685Z,64.30
2023-04-18T00:18:09.121Z,59.40
2023-04-18T00:20:42.223Z,48.10
2023-04-18T00:23:15.319Z,37.40
2023-04-18T00:25:48.087Z,43.70
2023-04-18T00:28:20.806Z,32.90
2023-04-18T00:30:55.040Z,36.90
2023-04-18T00:33:28.319Z,37.20
2023-04-18T00:36:01.022Z,57.90
2023-04-18T00:38:33.878Z,64.10
2023-04-18T00:41:06.687Z,60.30
2023-04-18T00:43:39.667Z,55.30
2023-04-18T00:46:12.347Z,62.20
2023-04-18T00:48:45.239Z,55.00
2023-04-18T00:51:18.018Z,59.10
2023-04-18T00:53:50.882Z,47.20
2023-04-18T00:56:26.112Z,56.10
2023-04-18T00:58:59.533Z,56.90
2023-04-18T01:01:33.901Z,55.40
2023-04-18T01:04:07.300Z,44.30
2023-04-18T01:06:41.104Z,47.20
2023-04-18T01:09:14.210Z,55.40
2023-04-18T01:11:47.145Z,61.20
2023-04-18T01:14:22.403Z,58.30
2023-04-18T01:16:55.063Z,67.20
2023-04-18T01:19:28.633Z,63.90
2023-04-18T01:22:01.311Z,67.20
2023-04-18T01:24:34.572Z,59.60
2023-04-18T01:27:07.207Z,65.40
2023-04-18T01:29:40.022Z,62.40
2023-04-18T01:32:12.777Z,58.40
2023-04-18T01:34:45.594Z,55.90
2023-04-18T01:37:18.402Z,55.50
2023-04-18T01:39:51.126Z,71.30
2023-04-18T01:42:25.509Z,72.20
2023-04-18T01:44:58.264Z,61.90
2023-04-18T01:47:31.222Z,72.30
2023-04-18T01:50:04.941Z,62.90
2023-04-18T01:52:37.905Z,52.50
2023-04-18T01:55:11.884Z,56.60
2023-04-18T01:57:44.444Z,68.50
2023-04-18T02:00:18.125Z,68.80
2023-04-18T02:02:51.776Z,68.60
2023-04-18T02:05:27.534Z,55.50
2023-04-18T02:08:00.671Z,60.10
2023-04-18T02:10:34.384Z,62.40
2023-04-18T02:13:08.058Z,47.50
2023-04-18T02:15:41.976Z,43.00
2023-04-18T02:18:14.735Z,59.70
2023-04-18T02:20:47.737Z,46.70
2023-04-18T02:23:20.284Z,68.60
2023-04-18T02:25:53.747Z,86.00
2023-04-18T02:28:27.209Z,90.30
2023-04-18T02:31:00.886Z,94.60
2023-04-18T02:33:34.001Z,94.60
2023-04-18T02:36:08.160Z,83.10
2023-04-18T02:38:42.477Z,89.00
2023-04-18T02:41:22.898Z,78.20
2023-04-18T02:43:56.247Z,71.40
2023-04-18T02:46:30.151Z,71.30
2023-04-18T02:49:03.128Z,69.00
2023-04-18T02:51:36.682Z,57.70
2023-04-18T02:54:09.873Z,53.60
2023-04-18T02:57:06.284Z,48.00
2023-04-18T02:59:57.885Z,75.40
2023-04-18T03:03:00.121Z,72.10
2023-04-18T03:05:42.821Z,85.60
2023-04-18T03:08:16.711Z,82.20
2023-04-18T03:10:49.451Z,61.70
2023-04-18T03:13:23.930Z,79.70
2023-04-18T03:15:57.337Z,83.60
2023-04-18T03:18:30.811Z,82.80
2023-04-18T03:21:04.871Z,102.70
2023-04-18T03:23:38.654Z,122.40
2023-04-18T03:26:14.141Z,115.70
2023-04-18T03:28:47.686Z,100.30
2023-04-18T03:31:21.365Z,114.90
2023-04-18T03:33:54.063Z,120.00
2023-04-18T03:36:29.015Z,111.10
2023-04-18T03:39:02.188Z,84.40
2023-04-18T03:41:35.148Z,81.00
2023-04-18T03:44:09.190Z,69.50
2023-04-18T03:46:43.139Z,55.90
2023-04-18T03:49:15.999Z,61.90
2023-04-18T03:51:49.512Z,53.90
2023-04-18T03:54:22.296Z,50.50
2023-04-18T03:56:55.953Z,57.50
2023-04-18T03:59:29.642Z,56.90
2023-04-18T04:02:02.529Z,75.90
2023-04-18T04:04:35.526Z,67.90
2023-04-18T04:07:08.553Z,56.70
2023-04-18T04:09:43.023Z,49.10
2023-04-18T04:12:16.260Z,48.90
2023-04-18T04:14:49.372Z,46.60
2023-04-18T04:17:22.762Z,48.00
2023-04-18T04:19:56.666Z,55.20
2023-04-18T04:22:30.438Z,56.10
2023-04-18T04:25:03.374Z,64.00
2023-04-18T04:27:42.984Z,64.90
2023-04-18T04:30:18.371Z,56.80
2023-04-18T04:32:51.606Z,53.10
2023-04-18T04:35:24.530Z,46.80
2023-04-18T04:38:07.957Z,45.60
2023-04-18T04:40:49.688Z,48.30
2023-04-18T04:43:23.781Z,49.70
2023-04-18T04:46:00.110Z,54.10
2023-04-18T04:48:34.462Z,58.50
2023-04-18T04:51:09.339Z,39.20
2023-04-18T04:53:42.279Z,52.50
2023-04-18T04:56:15.344Z,46.70
2023-04-18T04:58:49.282Z,52.60
2023-04-18T05:01:27.488Z,48.30
2023-04-18T05:04:00.390Z,34.90
2023-04-18T05:06:33.406Z,51.90
2023-04-18T05:09:06.591Z,51.80
2023-04-18T05:11:40.099Z,44.20
2023-04-18T05:14:13.655Z,56.90
2023-04-18T05:16:47.094Z,56.10
2023-04-18T05:19:20.722Z,55.50
2023-04-18T05:21:53.705Z,51.90
2023-04-18T05:24:26.657Z,58.40
2023-04-18T05:26:59.590Z,72.30
2023-04-18T05:29:32.543Z,62.90
2023-04-18T05:32:06.617Z,50.70
2023-04-18T05:34:40.608Z,48.30
2023-04-18T05:37:14.810Z,33.20
2023-04-18T05:39:48.536Z,41.10
2023-04-18T05:42:22.213Z,62.10
2023-04-18T05:44:55.094Z,57.90
2023-04-18T05:47:30.727Z,54.50
2023-04-18T05:50:04.327Z,48.50
2023-04-18T05:52:38.197Z,45.80
2023-04-18T05:55:12.120Z,59.20
2023-04-18T05:57:46.073Z,43.20
2023-04-18T06:00:20.591Z,38.40
2023-04-18T06:02:53.852Z,39.10
2023-04-18T06:05:27.504Z,51.50
2023-04-18T06:08:00.828Z,25.70
2023-04-18T06:10:34.425Z,34.10
2023-04-18T06:13:07.587Z,29.60
2023-04-18T06:15:41.168Z,47.00
2023-04-18T06:18:13.923Z,27.30
2023-04-18T06:20:46.921Z,53.00
2023-04-18T06:23:19.875Z,39.50
2023-04-18T06:25:52.931Z,23.50
2023-04-18T06:28:25.947Z,47.20
2023-04-18T06:30:58.615Z,35.20
2023-04-18T06:33:32.546Z,30.30
2023-04-18T06:36:05.467Z,37.00
2023-04-18T06:38:39.273Z,30.80
2023-04-18T06:41:14.049Z,31.60
2023-04-18T06:43:59.735Z,29.70
2023-04-18T06:46:36.051Z,34.90
2023-04-18T06:49:09.156Z,26.20
2023-04-18T06:51:42.170Z,35.70
2023-04-18T06:54:16.148Z,41.40
2023-04-18T06:56:49.328Z,48.20
2023-04-18T06:59:23.773Z,61.50
2023-04-18T07:01:56.549Z,52.40
2023-04-18T07:04:29.613Z,51.90
2023-04-18T07:07:04.154Z,41.40
2023-04-18T07:09:37.093Z,37.70
2023-04-18T07:12:10.211Z,39.00
2023-04-18T07:14:43.344Z,32.80
2023-04-18T07:17:16.110Z,40.10
2023-04-18T07:19:48.823Z,25.60
2023-04-18T07:22:21.759Z,24.60
2023-04-18T07:24:54.851Z,32.20
2023-04-18T07:27:27.494Z,33.00
2023-04-18T07:30:00.286Z,30.90
2023-04-18T07:32:33.379Z,29.80
2023-04-18T07:35:06.321Z,32.00
2023-04-18T07:37:39.246Z,24.60
2023-04-18T07:40:14.536Z,39.10
2023-04-18T07:42:47.255Z,27.70
2023-04-18T07:45:20.316Z,30.70
2023-04-18T07:47:53.708Z,23.90
2023-04-18T07:50:27.169Z,33.90
2023-04-18T07:53:00.044Z,55.10
2023-04-18T07:55:33.202Z,32.20
2023-04-18T07:58:05.957Z,32.10
2023-04-18T08:00:40.380Z,31.60
2023-04-18T08:03:13.929Z,44.80
2023-04-18T08:05:47.162Z,23.40
2023-04-18T08:08:19.997Z,34.30
2023-04-18T08:10:53.178Z,29.20
2023-04-18T08:13:26.272Z,31.60
2023-04-18T08:16:00.046Z,24.00
2023-04-18T08:18:32.721Z,32.00
2023-04-18T08:21:05.844Z,27.60
2023-04-18T08:23:38.739Z,22.60
2023-04-18T08:26:11.413Z,25.60
2023-04-18T08:28:46.559Z,44.80
2023-04-18T08:31:19.612Z,42.60
2023-04-18T08:33:52.758Z,40.60
2023-04-18T08:36:27.081Z,25.10
2023-04-18T08:38:59.634Z,21.80
2023-04-18T08:41:33.757Z,39.50
2023-04-18T08:44:06.483Z,26.80
2023-04-18T08:46:39.218Z,26.90
2023-04-18T08:49:12.971Z,27.60
2023-04-18T08:51:46.782Z,23.00
2023-04-18T08:54:21.262Z,25.80
2023-04-18T08:57:07.904Z,31.90
2023-04-18T08:59:43.750Z,25.90
2023-04-18T09:02:18.324Z,23.90
2023-04-18T09:04:57.721Z,23.50
2023-04-18T09:07:31.934Z,28.30
2023-04-18T09:10:04.926Z,23.60
2023-04-18T09:12:42.723Z,17.30
2023-04-18T09:15:16.058Z,27.00
2023-04-18T09:17:51.176Z,17.40
2023-04-18T09:20:35.289Z,23.10
2023-04-18T09:23:11.322Z,31.10
2023-04-18T09:25:48.276Z,28.00
2023-04-18T09:28:29.044Z,28.50
2023-04-18T09:31:10.444Z,32.40
2023-04-18T09:33:46.704Z,22.60
2023-04-18T09:36:23.530Z,22.10
2023-04-18T09:38:57.172Z,18.20
2023-04-18T09:41:30.779Z,29.80
2023-04-18T09:44:15.336Z,26.10
2023-04-18T09:46:49.622Z,28.30
2023-04-18T09:49:22.296Z,25.20
2023-04-18T09:51:55.330Z,28.80
2023-04-18T09:54:28.233Z,22.50
2023-04-18T09:57:01.138Z,17.90
2023-04-18T09:59:39.777Z,26.40
2023-04-18T10:02:16.193Z,21.90
2023-04-18T10:04:49.127Z,25.60
2023-04-18T10:07:21.721Z,28.50
2023-04-18T10:09:54.582Z,25.40
2023-04-18T10:12:27.361Z,25.30
2023-04-18T10:14:59.976Z,23.50
2023-04-18T10:17:32.597Z,24.50
2023-04-18T10:20:17.704Z,23.30
2023-04-18T10:22:50.383Z,28.70
2023-04-18T10:25:52.344Z,25.50
2023-04-18T10:31:04.069Z,28.50
2023-04-18T10:33:42.430Z,24.90
2023-04-18T10:36:20.758Z,17.30
2023-04-18T10:38:56.143Z,27.20
2023-04-18T10:41:29.892Z,34.80
2023-04-18T10:44:23.818Z,22.90
2023-04-18T10:47:21.510Z,28.10
2023-04-18T10:50:01.566Z,24.80
2023-04-18T10:52:35.025Z,21.60
2023-04-18T10:55:26.090Z,19.70
2023-04-18T10:57:59.001Z,22.20
2023-04-18T11:00:31.730Z,19.80
2023-04-18T11:03:04.878Z,22.10
2023-04-18T11:05:37.666Z,24.20
2023-04-18T11:08:25.335Z,19.90
2023-04-18T11:11:03.333Z,25.80
2023-04-18T11:13:37.813Z,23.50
2023-04-18T11:16:11.895Z,30.30
2023-04-18T11:18:44.652Z,25.80
2023-04-18T11:21:17.349Z,19.40
2023-04-18T11:23:49.942Z,20.80
2023-04-18T11:26:25.304Z,20.90
2023-04-18T11:28:59.434Z,29.50
2023-04-18T11:31:32.094Z,23.50
2023-04-18T11:34:05.731Z,18.50
2023-04-18T11:36:38.968Z,24.40
2023-04-18T11:39:11.998Z,13.50
2023-04-18T11:41:50.709Z,14.00
2023-04-18T11:44:26.043Z,20.90
2023-04-18T11:46:58.694Z,21.90
2023-04-18T11:49:33.103Z,18.10
2023-04-18T11:52:09.964Z,17.70
2023-04-18T11:54:44.109Z,23.90
2023-04-18T11:57:27.243Z,12.90
2023-04-18T12:00:01.168Z,18.50
2023-04-18T12:02:44.560Z,16.80
2023-04-18T12:05:28.314Z,16.20
2023-04-18T12:08:09.401Z,14.60
2023-04-18T12:10:48.291Z,21.00
2023-04-18T12:13:21.063Z,21.90
2023-04-18T12:15:53.660Z,16.50
2023-04-18T12:18:26.544Z,18.70
2023-04-18T12:21:02.549Z,22.60
2023-04-18T12:23:37.420Z,24.90
2023-04-18T12:26:13.170Z,17.30
2023-04-18T12:28:48.286Z,17.80
2023-04-18T12:31:21.790Z,19.30
2023-04-18T12:33:54.627Z,13.80
2023-04-18T12:36:28.755Z,22.60
2023-04-18T12:39:02.549Z,11.30
2023-04-18T12:41:35.136Z,18.30
2023-04-18T12:44:08.210Z,24.10
2023-04-18T12:46:41.256Z,16.00
2023-04-18T12:49:14.246Z,20.00
2023-04-18T12:51:46.853Z,21.40
2023-04-18T12:54:20.220Z,34.10
2023-04-18T12:56:52.883Z,26.90
2023-04-18T12:59:25.875Z,26.40
2023-04-18T13:01:58.555Z,19.20
2023-04-18T13:04:31.708Z,15.20
2023-04-18T13:07:04.922Z,16.60
2023-04-18T13:09:37.676Z,10.00
2023-04-18T13:12:12.302Z,11.40
2023-04-18T13:14:45.757Z,15.20
2023-04-18T13:17:18.669Z,9.40
2023-04-18T13:19:51.351Z,15.00
2023-04-18T13:22:24.095Z,17.70
2023-04-18T13:24:56.882Z,16.60
2023-04-18T13:27:29.449Z,13.50
2023-04-18T13:30:02.303Z,20.30
2023-04-18T13:32:36.032Z,27.60
2023-04-18T13:35:10.185Z,13.80
2023-04-18T13:37:42.978Z,26.10
2023-04-18T13:40:16.313Z,16.90
2023-04-18T13:42:49.264Z,23.90
2023-04-18T13:45:22.626Z,26.10
2023-04-18T13:47:55.893Z,28.80
2023-04-18T13:50:28.827Z,20.20
2023-04-18T13:53:01.533Z,25.60
2023-04-18T13:55:34.705Z,20.50
2023-04-18T13:58:08.673Z,21.10
2023-04-18T14:00:42.537Z,17.30
2023-04-18T14:03:15.669Z,14.70
2023-04-18T14:05:48.643Z,17.60
2023-04-18T14:08:21.773Z,24.80
2023-04-18T14:10:54.600Z,24.00
2023-04-18T14:13:27.416Z,26.40
2023-04-18T14:16:00.375Z,28.80
2023-04-18T14:18:41.657Z,25.40
2023-04-18T14:21:14.668Z,27.80
2023-04-18T14:23:47.241Z,34.30
2023-04-18T14:26:20.007Z,30.60
2023-04-18T14:28:52.966Z,34.30
2023-04-18T14:31:29.126Z,22.70
2023-04-18T14:34:02.039Z,19.60
2023-04-18T14:36:34.733Z,14.50
2023-04-18T14:39:07.857Z,15.20
2023-04-18T14:41:40.706Z,14.70
2023-04-18T14:44:13.772Z,32.20
2023-04-18T14:46:46.782Z,21.50
2023-04-18T14:49:19.652Z,29.40
2023-04-18T14:51:52.317Z,14.80
2023-04-18T14:54:24.958Z,23.80
2023-04-18T14:56:57.807Z,28.00
2023-04-18T14:59:30.678Z,22.00
2023-04-18T15:02:03.539Z,20.70
2023-04-18T15:04:36.660Z,23.30
2023-04-18T15:07:09.358Z,26.90
2023-04-18T15:09:42.065Z,26.30
2023-04-18T15:12:15.736Z,20.30
2023-04-18T15:14:48.905Z,23.80
2023-04-18T15:17:21.826Z,25.40
2023-04-18T15:19:54.703Z,27.00
2023-04-18T15:22:27.785Z,35.20
2023-04-18T15:25:00.746Z,23.00
2023-04-18T15:27:34.167Z,22.10
2023-04-18T15:30:09.854Z,15.10
2023-04-18T15:32:42.924Z,15.10
2023-04-18T15:35:15.960Z,19.30
2023-04-18T15:37:49.365Z,12.00
2023-04-18T15:40:22.437Z,25.60
2023-04-18T15:42:56.214Z,18.40
2023-04-18T15:45:28.867Z,18.10
2023-04-18T15:48:01.488Z,13.00
2023-04-18T15:50:34.823Z,10.90
2023-04-18T15:53:07.453Z,13.90
2023-04-18T15:55:40.556Z,17.90
2023-04-18T15:58:13.332Z,15.70
2023-04-18T16:00:46.728Z,15.00
2023-04-18T16:03:19.971Z,22.30
2023-04-18T16:05:53.312Z,16.70
2023-04-18T16:08:26.676Z,22.90
2023-04-18T16:10:59.640Z,14.70
2023-04-18T16:13:32.647Z,8.20
2023-04-18T16:16:05.919Z,16.40
2023-04-18T16:18:40.310Z,10.50
2023-04-18T16:21:15.794Z,21.60
2023-04-18T16:23:49.086Z,15.80
2023-04-18T16:26:25.044Z,15.90
2023-04-18T16:28:57.708Z,22.20
2023-04-18T16:31:30.434Z,25.30
2023-04-18T16:34:03.767Z,19.50
2023-04-18T16:36:37.316Z,17.70
2023-04-18T16:39:09.990Z,17.60
2023-04-18T16:41:42.755Z,21.90
2023-04-18T16:44:15.606Z,24.10
2023-04-18T16:46:48.676Z,22.30
2023-04-18T16:49:21.551Z,23.20
2023-04-18T16:51:54.302Z,26.90
2023-04-18T16:54:27.211Z,19.20
2023-04-18T16:57:01.178Z,19.20
2023-04-18T16:59:34.959Z,17.70
2023-04-18T17:02:07.779Z,19.70
2023-04-18T17:04:42.508Z,18.10
2023-04-18T17:07:15.313Z,16.20
2023-04-18T17:09:48.168Z,17.00
2023-04-18T17:12:22.360Z,20.30
2023-04-18T17:14:55.337Z,21.40
2023-04-18T17:17:28.157Z,20.50
2023-04-18T17:20:01.812Z,22.10
2023-04-18T17:22:35.797Z,18.90
2023-04-18T17:25:09.955Z,19.70
2023-04-18T17:27:43.781Z,36.10
2023-04-18T17:30:16.854Z,21.60
2023-04-18T17:32:51.371Z,35.00
2023-04-18T17:35:24.779Z,27.50
2023-04-18T17:37:57.421Z,23.50
2023-04-18T17:40:30.455Z,33.90
2023-04-18T17:43:03.463Z,47.20
2023-04-18T17:45:37.748Z,53.80
2023-04-18T17:48:10.835Z,60.50
2023-04-18T17:50:43.959Z,50.10
2023-04-18T17:53:17.830Z,46.50
2023-04-18T17:55:52.357Z,45.40
2023-04-18T17:58:25.363Z,36.90
2023-04-18T18:00:58.359Z,41.10
2023-04-18T18:03:31.663Z,39.10
2023-04-18T18:06:04.819Z,33.10
2023-04-18T18:08:38.261Z,32.70
2023-04-18T18:11:11.435Z,37.80
2023-04-18T18:13:44.561Z,53.90
2023-04-18T18:16:17.336Z,52.40
2023-04-18T18:18:51.163Z,44.80
2023-04-18T18:21:23.869Z,40.90
2023-04-18T18:23:57.161Z,41.70
2023-04-18T18:26:29.820Z,36.90
2023-04-18T18:29:09.191Z,34.20
2023-04-18T18:31:42.580Z,26.90
2023-04-18T18:34:16.066Z,27.80
2023-04-18T18:36:49.238Z,27.10
2023-04-18T18:39:22.334Z,30.30
2023-04-18T18:41:55.409Z,17.50
2023-04-18T18:44:28.015Z,20.20
2023-04-18T18:47:00.915Z,17.10
2023-04-18T18:49:33.983Z,19.60
2023-04-18T18:52:06.990Z,19.80
2023-04-18T18:54:40.286Z,17.80
2023-04-18T18:57:13.306Z,25.00
2023-04-18T18:59:46.470Z,17.70
2023-04-18T19:02:19.628Z,14.90
2023-04-18T19:04:52.815Z,20.50
2023-04-18T19:07:28.328Z,19.20
2023-04-18T19:10:03.148Z,26.40
2023-04-18T19:12:36.490Z,27.10
2023-04-18T19:15:11.376Z,34.80
2023-04-18T19:17:44.553Z,57.00
2023-04-18T19:20:17.295Z,51.30
2023-04-18T19:22:50.088Z,51.50
2023-04-18T19:25:24.801Z,49.80
2023-04-18T19:27:57.524Z,37.20
2023-04-18T19:30:30.260Z,38.80
2023-04-18T19:33:03.185Z,35.60
2023-04-18T19:35:37.927Z,36.80
2023-04-18T19:38:10.994Z,29.50
2023-04-18T19:40:43.891Z,43.80
2023-04-18T19:43:16.606Z,41.00
2023-04-18T19:45:49.592Z,50.00
2023-04-18T19:48:22.759Z,57.00
2023-04-18T19:50:55.618Z,60.40
2023-04-18T19:53:29.006Z,50.80
2023-04-18T19:56:01.777Z,45.80
2023-04-18T19:58:40.245Z,65.30
2023-04-18T20:01:14.058Z,39.30
2023-04-18T20:03:47.165Z,49.40
2023-04-18T20:06:20.461Z,45.60
2023-04-18T20:08:53.680Z,46.10
2023-04-18T20:11:26.633Z,53.50
2023-04-18T20:13:59.469Z,68.80
2023-04-18T20:16:32.969Z,48.20
2023-04-18T20:19:05.875Z,41.20
2023-04-18T20:21:39.161Z,37.40
2023-04-18T20:24:12.412Z,34.30
2023-04-18T20:26:45.049Z,42.00
2023-04-18T20:29:17.926Z,28.80
2023-04-18T20:31:50.622Z,44.40
2023-04-18T20:34:23.398Z,23.40
2023-04-18T20:36:58.091Z,23.60
2023-04-18T20:39:31.801Z,30.50
2023-04-18T20:42:04.548Z,37.10
2023-04-18T20:44:37.543Z,24.50
2023-04-18T20:47:10.342Z,28.90
2023-04-18T20:49:43.162Z,23.00
2023-04-18T20:52:16.068Z,16.50
2023-04-18T20:54:49.240Z,21.00
2023-04-18T20:57:22.232Z,30.70
2023-04-18T20:59:58.773Z,41.50
2023-04-18T21:02:31.592Z,55.20
2023-04-18T21:05:04.791Z,67.50
2023-04-18T21:07:38.971Z,80.30
2023-04-18T21:10:12.954Z,87.30
2023-04-18T21:12:46.712Z,86.20
2023-04-18T21:15:19.739Z,91.90
2023-04-18T21:17:53.031Z,106.30
2023-04-18T21:20:26.531Z,87.20
2023-04-18T21:22:59.328Z,70.60
2023-04-18T21:25:32.171Z,67.70
2023-04-18T21:28:04.960Z,55.00
2023-04-18T21:30:37.999Z,58.00
2023-04-18T21:33:10.611Z,39.60
2023-04-18T21:35:43.610Z,50.20
2023-04-18T21:38:16.674Z,51.60
2023-04-18T21:40:49.423Z,33.40
2023-04-18T21:43:22.051Z,37.60
2023-04-18T21:45:55.002Z,31.30
2023-04-18T21:48:27.631Z,37.10
2023-04-18T21:51:00.235Z,48.20
2023-04-18T21:53:33.074Z,33.10
2023-04-18T21:56:05.973Z,37.60
2023-04-18T21:58:39.010Z,27.90
2023-04-18T22:01:11.850Z,43.70
2023-04-18T22:03:44.852Z,36.10
2023-04-18T22:06:17.776Z,26.50
2023-04-18T22:08:51.864Z,25.10
2023-04-18T22:11:24.852Z,23.70
2023-04-18T22:13:58.326Z,18.60
2023-04-18T22:16:31.313Z,19.10
2023-04-18T22:19:04.429Z,16.90
2023-04-18T22:21:38.272Z,21.50
2023-04-18T22:24:12.350Z,19.00
2023-04-18T22:26:45.318Z,11.50
2023-04-18T22:29:17.957Z,16.70
2023-04-18T22:31:51.184Z,19.10
2023-04-18T22:34:23.800Z,21.60
2023-04-18T22:36:56.700Z,16.40
2023-04-18T22:39:31.599Z,19.00
2023-04-18T22:42:04.252Z,11.80
2023-04-18T22:44:37.896Z,11.40
2023-04-18T22:47:10.640Z,20.50
2023-04-18T22:49:43.203Z,10.20
2023-04-18T22:52:15.984Z,13.20
2023-04-18T22:54:48.634Z,13.60
2023-04-18T22:57:21.376Z,15.40
2023-04-18T22:59:53.979Z,16.90
2023-04-18T23:02:27.096Z,20.10
2023-04-18T23:05:02.583Z,19.70
2023-04-18T23:07:35.338Z,20.10
2023-04-18T23:10:11.636Z,11.00
2023-04-18T23:12:44.939Z,18.10
2023-04-18T23:15:17.720Z,16.00
2023-04-18T23:17:50.793Z,16.60
2023-04-18T23:20:24.242Z,18.00
2023-04-18T23:22:56.877Z,21.50
2023-04-18T23:25:29.673Z,16.40
2023-04-18T23:28:02.594Z,31.40
2023-04-18T23:30:38.227Z,20.00
2023-04-18T23:33:10.960Z,17.30
2023-04-18T23:35:43.824Z,12.60
2023-04-18T23:38:16.359Z,13.30
2023-04-18T23:40:49.208Z,17.50
2023-04-18T23:43:21.868Z,14.80
2023-04-18T23:45:54.594Z,18.10
2023-04-18T23:48:27.747Z,15.30
2023-04-18T23:51:00.608Z,14.50
2023-04-18T23:53:33.221Z,18.80
2023-04-18T23:56:06.318Z,18.40
2023-04-18T23:58:39.064Z,14.50
